Time;durP1;ratioP1;P1;durP2;ratioP2;P2;SDS_P1;SDS_P2;PMS_P1;PMS_P2;Temp;Humidity;BMP_temperature;BMP_pressure;BME280_temperature;BME280_humidity;BME280_pressure;Samples;Min_cycle;Max_cycle;Signal;HPM_P1;HPM_P2
2023/12/20 00:01:23;;;;;;;11.20;8.73;;;8.40;99.90;;;;;;4991558;28;20192;-72
2023/12/20 00:03:49;;;;;;;11.70;8.80;;;8.30;99.90;;;;;;4990556;28;20211;-73
2023/12/20 00:06:15;;;;;;;11.03;8.33;;;8.30;99.90;;;;;;4989759;28;20841;-72
2023/12/20 00:08:40;;;;;;;13.07;9.77;;;8.40;99.90;;;;;;4989602;28;20188;-72
2023/12/20 00:11:06;;;;;;;14.87;10.90;;;8.30;99.90;;;;;;4991235;28;20183;-72
2023/12/20 00:13:32;;;;;;;15.83;11.17;;;8.40;99.90;;;;;;4991365;28;20187;-73
2023/12/20 00:15:57;;;;;;;16.90;11.33;;;8.40;99.90;;;;;;4990343;28;20636;-73
2023/12/20 00:18:23;;;;;;;18.30;12.33;;;8.30;99.90;;;;;;4989981;28;20269;-72
2023/12/20 00:20:49;;;;;;;15.00;11.50;;;8.40;99.90;;;;;;4989792;28;20199;-72
2023/12/20 00:23:14;;;;;;;17.30;12.00;;;8.40;99.90;;;;;;4991144;28;20190;-72
2023/12/20 00:25:40;;;;;;;16.93;12.77;;;8.30;99.90;;;;;;4987938;28;20572;-73
2023/12/20 00:28:06;;;;;;;16.27;11.77;;;8.40;99.90;;;;;;4992386;28;20191;-72
2023/12/20 00:30:32;;;;;;;16.90;13.00;;;8.30;99.90;;;;;;4989925;28;20191;-73
2023/12/20 00:32:57;;;;;;;15.47;11.40;;;8.40;99.90;;;;;;4992101;28;20207;-73
2023/12/20 00:35:23;;;;;;;16.43;10.77;;;8.40;99.90;;;;;;4988291;28;20653;-72
2023/12/20 00:37:49;;;;;;;14.50;10.10;;;8.40;99.90;;;;;;4989810;28;20237;-72
2023/12/20 00:40:15;;;;;;;15.60;9.90;;;8.40;99.90;;;;;;4990756;28;21261;-72
2023/12/20 00:42:41;;;;;;;11.53;8.60;;;8.30;99.90;;;;;;4988051;28;20302;-73
2023/12/20 00:45:07;;;;;;;14.70;9.67;;;8.30;99.90;;;;;;4989266;28;20618;-72
2023/12/20 00:47:32;;;;;;;13.30;8.87;;;8.30;99.90;;;;;;4989668;28;20175;-72
2023/12/20 00:49:58;;;;;;;12.77;7.90;;;8.30;99.90;;;;;;4988107;28;20427;-72
2023/12/20 00:52:25;;;;;;;12.40;8.17;;;8.30;99.90;;;;;;4990032;28;20232;-73
2023/12/20 00:54:51;;;;;;;16.23;8.27;;;8.20;99.90;;;;;;4989591;28;20180;-72
2023/12/20 00:57:16;;;;;;;11.10;8.00;;;8.20;99.90;;;;;;4990118;28;20427;-73
2023/12/20 00:59:42;;;;;;;10.00;8.03;;;8.20;99.90;;;;;;4989235;28;20486;-72
2023/12/20 01:02:09;;;;;;;11.27;7.73;;;8.20;99.90;;;;;;4990342;28;20188;-72
2023/12/20 01:04:34;;;;;;;10.50;7.90;;;8.10;99.90;;;;;;4990288;28;20214;-72
2023/12/20 01:07:00;;;;;;;12.80;8.40;;;8.10;99.90;;;;;;4990085;28;20465;-73
2023/12/20 01:09:29;;;;;;;9.00;7.07;;;8.10;99.90;;;;;;4989065;28;20267;-72
2023/12/20 01:11:54;;;;;;;11.43;6.70;;;8.10;99.90;;;;;;4989604;28;20220;-72
2023/12/20 01:14:20;;;;;;;10.10;6.30;;;8.10;99.90;;;;;;4990072;28;20423;-72
2023/12/20 01:16:46;;;;;;;11.27;6.50;;;8.10;99.90;;;;;;4989077;28;20267;-73
2023/12/20 01:19:13;;;;;;;13.27;7.77;;;8.00;99.90;;;;;;4989294;28;20194;-72
2023/12/20 01:21:39;;;;;;;9.27;6.53;;;8.00;99.90;;;;;;4988355;28;20180;-73
2023/12/20 01:24:04;;;;;;;10.37;6.30;;;8.00;99.90;;;;;;4990952;28;20469;-72
2023/12/20 01:26:30;;;;;;;10.93;5.90;;;8.00;99.90;;;;;;4999722;28;20431;-72
2023/12/20 01:28:56;;;;;;;7.40;5.10;;;8.00;99.90;;;;;;4997038;28;20183;-72
2023/12/20 01:31:21;;;;;;;8.27;5.50;;;8.00;99.90;;;;;;4996961;28;20891;-72
2023/12/20 01:33:47;;;;;;;8.77;6.03;;;8.00;99.90;;;;;;4999706;28;20675;-73
2023/12/20 01:36:13;;;;;;;10.17;5.97;;;8.00;99.90;;;;;;4997393;28;20237;-72
2023/12/20 01:38:39;;;;;;;9.80;6.40;;;8.00;99.90;;;;;;4991461;28;20188;-72
2023/12/20 01:41:04;;;;;;;11.60;7.10;;;8.00;99.90;;;;;;4991749;28;20188;-72
2023/12/20 01:43:30;;;;;;;12.23;7.40;;;7.90;99.90;;;;;;4973290;28;20443;-72
2023/12/20 01:46:00;;;;;;;12.67;6.67;;;7.90;99.90;;;;;;4991296;28;20262;-72
2023/12/20 01:48:27;;;;;;;12.97;6.57;;;7.90;99.90;;;;;;4991075;28;20595;-72
2023/12/20 01:50:53;;;;;;;9.73;6.40;;;7.90;99.90;;;;;;4992126;28;20487;-72
2023/12/20 01:53:21;;;;;;;8.60;6.00;;;7.90;99.90;;;;;;4991420;28;20480;-73
2023/12/20 01:55:50;;;;;;;12.00;6.70;;;7.90;99.90;;;;;;4990856;28;20779;-72
2023/12/20 01:58:17;;;;;;;7.80;5.40;;;7.80;99.90;;;;;;4992233;28;20563;-72
2023/12/20 02:00:42;;;;;;;8.87;5.20;;;7.90;99.90;;;;;;4990308;28;20438;-72
2023/12/20 02:03:08;;;;;;;7.83;6.20;;;7.90;99.90;;;;;;4991932;28;20423;-73
2023/12/20 02:05:36;;;;;;;13.53;6.17;;;7.80;99.90;;;;;;4990775;28;20732;-72
2023/12/20 02:08:02;;;;;;;9.37;4.07;;;7.80;99.90;;;;;;4990979;28;20502;-72
2023/12/20 02:10:29;;;;;;;11.13;4.83;;;7.80;99.90;;;;;;4991373;28;20431;-72
2023/12/20 02:12:54;;;;;;;7.57;5.10;;;7.80;99.90;;;;;;4991438;28;20473;-73
2023/12/20 02:15:20;;;;;;;6.87;3.93;;;7.80;99.90;;;;;;4991004;28;20518;-72
2023/12/20 02:17:48;;;;;;;7.87;5.00;;;7.80;99.90;;;;;;4991601;28;20187;-72
2023/12/20 02:20:14;;;;;;;10.17;4.77;;;7.80;99.90;;;;;;4991930;28;20462;-72
2023/12/20 02:22:40;;;;;;;15.23;5.40;;;7.80;99.90;;;;;;4990944;28;20427;-72
2023/12/20 02:25:06;;;;;;;8.37;5.50;;;7.70;99.90;;;;;;4991757;28;20530;-72
2023/12/20 02:27:31;;;;;;;8.90;5.30;;;7.70;99.90;;;;;;4990947;28;20198;-72
2023/12/20 02:29:57;;;;;;;9.70;6.50;;;7.70;99.90;;;;;;4990678;28;20427;-73
2023/12/20 02:32:27;;;;;;;11.07;7.70;;;7.70;99.90;;;;;;4990612;28;20245;-73
2023/12/20 02:34:53;;;;;;;11.43;7.40;;;7.70;99.90;;;;;;4990700;28;20241;-72
2023/12/20 02:37:19;;;;;;;14.77;7.70;;;7.70;99.90;;;;;;4991895;28;20489;-72
2023/12/20 02:39:44;;;;;;;13.10;8.23;;;7.70;99.90;;;;;;4991388;28;20464;-73
2023/12/20 02:42:10;;;;;;;11.07;6.87;;;7.70;99.90;;;;;;4991839;28;20215;-72
2023/12/20 02:44:36;;;;;;;19.10;7.87;;;7.70;99.90;;;;;;4991109;28;20210;-72
2023/12/20 02:47:02;;;;;;;8.47;7.23;;;7.70;99.90;;;;;;4991435;28;20967;-72
2023/12/20 02:49:28;;;;;;;13.33;6.57;;;7.60;99.90;;;;;;4991350;28;20190;-72
2023/12/20 02:51:53;;;;;;;19.33;7.70;;;7.70;99.90;;;;;;4993549;28;20435;-73
2023/12/20 02:54:19;;;;;;;8.60;6.27;;;7.60;99.90;;;;;;4991958;28;20198;-73
2023/12/20 02:56:45;;;;;;;11.87;6.30;;;7.70;99.90;;;;;;4991223;28;20190;-73
2023/12/20 02:59:11;;;;;;;13.83;6.37;;;7.60;99.90;;;;;;4992812;28;20253;-72
2023/12/20 03:01:42;;;;;;;10.40;6.57;;;7.60;99.90;;;;;;4995471;28;20183;-72
2023/12/20 03:04:08;;;;;;;9.00;6.80;;;7.60;99.90;;;;;;4995328;28;20300;-73
2023/12/20 03:06:34;;;;;;;10.87;7.27;;;7.60;99.90;;;;;;4994937;28;20976;-72
2023/12/20 03:08:59;;;;;;;8.57;6.10;;;7.60;99.90;;;;;;4995057;28;20192;-72
2023/12/20 03:11:28;;;;;;;11.70;6.97;;;7.60;99.90;;;;;;4995475;28;20187;-72
2023/12/20 03:13:55;;;;;;;14.13;6.27;;;7.60;99.90;;;;;;4994822;28;20199;-73
2023/12/20 03:16:21;;;;;;;10.43;6.60;;;7.60;99.90;;;;;;4994958;28;20435;-73
2023/12/20 03:18:46;;;;;;;14.13;7.67;;;7.60;99.90;;;;;;4994834;28;20422;-72
2023/12/20 03:21:12;;;;;;;14.93;7.63;;;7.60;99.90;;;;;;4995092;28;20188;-72
2023/12/20 03:23:38;;;;;;;12.27;6.53;;;7.60;99.90;;;;;;4993708;28;20183;-72
2023/12/20 03:26:09;;;;;;;14.03;6.80;;;7.50;99.90;;;;;;4995236;28;20813;-73
2023/12/20 03:28:36;;;;;;;13.90;6.60;;;7.50;99.90;;;;;;4995229;28;20422;-72
2023/12/20 03:31:02;;;;;;;10.33;5.00;;;7.50;99.90;;;;;;4995200;28;20462;-72
2023/12/20 03:33:29;;;;;;;15.00;7.20;;;7.50;99.90;;;;;;4995375;28;20999;-72
2023/12/20 03:35:54;;;;;;;13.97;6.00;;;7.50;99.90;;;;;;4994854;28;21099;-72
2023/12/20 03:38:21;;;;;;;12.37;6.40;;;7.50;99.90;;;;;;4995627;28;20435;-72
2023/12/20 03:40:47;;;;;;;14.27;6.77;;;7.50;99.90;;;;;;4994433;28;20187;-72
2023/12/20 03:43:12;;;;;;;15.27;6.80;;;7.40;99.90;;;;;;4995424;28;20437;-72
2023/12/20 03:45:38;;;;;;;10.30;5.47;;;7.40;99.90;;;;;;4995036;28;21261;-72
2023/12/20 03:48:04;;;;;;;10.63;5.10;;;7.40;99.90;;;;;;4995440;28;20198;-72
2023/12/20 03:50:30;;;;;;;10.47;5.30;;;7.40;99.90;;;;;;4998390;28;20192;-72
2023/12/20 03:52:56;;;;;;;12.23;6.10;;;7.30;99.90;;;;;;4995106;28;20433;-72
2023/12/20 03:55:21;;;;;;;11.10;5.13;;;7.40;99.90;;;;;;4995023;28;20192;-73
2023/12/20 03:57:47;;;;;;;10.20;5.90;;;7.30;99.90;;;;;;4995576;28;20175;-73
2023/12/20 04:00:13;;;;;;;11.90;5.90;;;7.30;99.90;;;;;;4995312;28;20260;-73
2023/12/20 04:02:40;;;;;;;9.43;6.00;;;7.30;99.90;;;;;;4995281;28;20635;-73
2023/12/20 04:05:06;;;;;;;10.73;5.90;;;7.30;99.90;;;;;;4995396;28;20470;-72
2023/12/20 04:07:32;;;;;;;13.13;6.03;;;7.30;99.90;;;;;;4995859;28;20427;-72
2023/12/20 04:09:58;;;;;;;13.67;7.47;;;7.20;99.90;;;;;;4994036;28;20950;-72
2023/12/20 04:12:24;;;;;;;10.33;6.40;;;7.20;99.90;;;;;;4995904;28;20462;-73
2023/12/20 04:14:50;;;;;;;9.37;5.57;;;7.20;99.90;;;;;;4995228;28;20656;-73
2023/12/20 04:17:16;;;;;;;13.97;6.20;;;7.20;99.90;;;;;;4994244;28;20542;-72
2023/12/20 04:19:42;;;;;;;16.60;6.37;;;7.20;99.90;;;;;;4995727;28;20312;-72
2023/12/20 04:22:08;;;;;;;10.40;6.30;;;7.20;99.90;;;;;;4993773;28;20514;-72
2023/12/20 04:24:34;;;;;;;9.73;6.87;;;7.20;99.90;;;;;;4995077;28;20827;-72
2023/12/20 04:26:59;;;;;;;15.90;6.83;;;7.20;99.90;;;;;;4995233;28;20442;-72
2023/12/20 04:29:25;;;;;;;14.00;7.50;;;7.20;99.90;;;;;;4996388;28;20203;-72
2023/12/20 04:31:51;;;;;;;16.90;7.20;;;7.20;99.90;;;;;;4984654;28;20291;-72
2023/12/20 04:34:17;;;;;;;15.67;8.00;;;7.20;99.90;;;;;;4970339;28;20641;-72
2023/12/20 04:36:43;;;;;;;13.53;7.63;;;7.20;99.90;;;;;;4995052;28;20423;-73
2023/12/20 04:39:10;;;;;;;13.03;7.27;;;7.20;99.90;;;;;;4995835;28;20443;-73
2023/12/20 04:41:35;;;;;;;10.73;7.20;;;7.20;99.90;;;;;;4995032;28;20624;-73
2023/12/20 04:44:02;;;;;;;12.90;6.60;;;7.20;99.90;;;;;;4994136;28;20523;-73
2023/12/20 04:46:27;;;;;;;18.73;7.53;;;7.20;99.90;;;;;;4996544;28;20183;-73
2023/12/20 04:48:53;;;;;;;10.63;7.20;;;7.10;99.90;;;;;;4995085;28;20437;-73
2023/12/20 04:51:19;;;;;;;16.33;7.33;;;7.10;99.90;;;;;;4998211;28;20313;-73
2023/12/20 04:53:44;;;;;;;10.77;8.20;;;7.20;99.90;;;;;;4996824;28;20179;-73
2023/12/20 04:56:10;;;;;;;10.87;7.20;;;7.10;99.90;;;;;;4995423;28;20372;-73
2023/12/20 04:58:35;;;;;;;16.03;8.00;;;7.10;99.90;;;;;;4996485;28;20183;-73
2023/12/20 05:01:01;;;;;;;12.13;7.63;;;7.10;99.90;;;;;;4995444;28;20188;-73
2023/12/20 05:03:27;;;;;;;15.73;8.60;;;7.10;99.90;;;;;;4996672;28;20231;-73
2023/12/20 05:05:52;;;;;;;10.27;7.77;;;7.10;99.90;;;;;;4995121;28;20302;-72
2023/12/20 05:08:18;;;;;;;15.87;7.67;;;7.10;99.90;;;;;;4996034;28;20232;-72
2023/12/20 05:10:44;;;;;;;13.60;6.60;;;7.10;99.90;;;;;;4996457;28;20668;-72
2023/12/20 05:13:09;;;;;;;15.07;8.83;;;7.10;99.90;;;;;;4996016;28;20176;-72
2023/12/20 05:15:35;;;;;;;15.20;7.53;;;7.10;99.90;;;;;;4996035;28;20644;-72
2023/12/20 05:18:01;;;;;;;12.00;7.40;;;7.10;99.90;;;;;;4995713;28;20222;-72
2023/12/20 05:20:26;;;;;;;13.90;8.00;;;7.10;99.90;;;;;;4996998;28;20190;-73
2023/12/20 05:22:52;;;;;;;12.10;7.23;;;7.10;99.90;;;;;;4994407;28;20200;-72
2023/12/20 05:25:18;;;;;;;12.60;7.67;;;7.10;99.90;;;;;;4995720;28;20202;-72
2023/12/20 05:27:44;;;;;;;14.47;7.80;;;7.10;99.90;;;;;;4996703;28;20179;-72
2023/12/20 05:30:10;;;;;;;11.53;7.37;;;7.10;99.90;;;;;;4996907;28;20941;-72
2023/12/20 05:32:36;;;;;;;11.73;7.20;;;7.10;99.90;;;;;;4997171;28;20290;-72
2023/12/20 05:35:03;;;;;;;10.77;6.90;;;7.10;99.90;;;;;;4997069;28;20427;-73
2023/12/20 05:37:28;;;;;;;11.20;7.30;;;7.10;99.90;;;;;;4998725;28;20207;-73
2023/12/20 05:39:54;;;;;;;14.60;8.10;;;7.10;99.90;;;;;;4995958;28;20481;-72
2023/12/20 05:42:20;;;;;;;14.17;7.67;;;7.00;99.90;;;;;;4997891;28;20219;-76
2023/12/20 05:44:45;;;;;;;14.47;8.27;;;7.00;99.90;;;;;;4997382;28;20242;-73
2023/12/20 05:47:11;;;;;;;15.87;7.53;;;7.00;99.90;;;;;;4995563;28;20187;-72
2023/12/20 05:49:37;;;;;;;15.43;8.13;;;7.00;99.90;;;;;;4997724;28;20187;-73
2023/12/20 05:52:02;;;;;;;13.40;7.80;;;7.10;99.90;;;;;;4995636;28;20604;-73
2023/12/20 05:54:28;;;;;;;10.07;7.20;;;7.00;99.90;;;;;;4998292;28;20286;-73
2023/12/20 05:56:54;;;;;;;16.47;8.07;;;7.00;99.90;;;;;;4982895;28;20442;-73
2023/12/20 05:59:19;;;;;;;18.47;9.00;;;7.10;99.90;;;;;;4989976;28;20656;-75
2023/12/20 06:01:45;;;;;;;15.43;8.10;;;7.00;99.90;;;;;;4988899;28;20774;-72
2023/12/20 06:04:11;;;;;;;17.43;9.17;;;7.00;99.90;;;;;;4989750;28;20618;-72
2023/12/20 06:06:43;;;;;;;14.27;9.30;;;7.00;99.90;;;;;;4987345;28;20245;-73
2023/12/20 06:09:10;;;;;;;15.73;9.30;;;7.00;99.90;;;;;;5004605;28;20287;-72
2023/12/20 06:11:36;;;;;;;19.80;9.50;;;7.00;99.90;;;;;;4997673;28;20909;-73
2023/12/20 06:14:01;;;;;;;17.63;8.60;;;7.00;99.90;;;;;;4996142;28;20426;-72
2023/12/20 06:16:27;;;;;;;20.00;10.20;;;7.00;99.90;;;;;;4997255;28;20187;-72
2023/12/20 06:18:53;;;;;;;15.93;9.30;;;7.00;99.90;;;;;;4995796;28;20587;-72
2023/12/20 06:21:19;;;;;;;16.37;9.93;;;7.00;99.90;;;;;;4994350;28;20207;-72
2023/12/20 06:23:44;;;;;;;22.93;9.80;;;6.90;99.90;;;;;;4997496;28;20179;-72
2023/12/20 06:26:10;;;;;;;12.63;9.10;;;7.00;99.90;;;;;;4996335;28;20187;-72
2023/12/20 06:28:36;;;;;;;22.23;9.77;;;7.00;99.90;;;;;;4997745;28;20203;-72
2023/12/20 06:31:02;;;;;;;13.30;9.00;;;6.90;99.90;;;;;;4996409;28;20275;-72
2023/12/20 06:33:29;;;;;;;21.47;9.80;;;7.00;99.90;;;;;;4998882;28;20209;-72
2023/12/20 06:35:54;;;;;;;16.13;9.90;;;6.90;99.90;;;;;;4999624;28;20537;-72
2023/12/20 06:38:20;;;;;;;14.10;7.73;;;7.00;99.90;;;;;;5001897;28;20510;-72
2023/12/20 06:40:46;;;;;;;16.60;9.20;;;7.00;99.90;;;;;;5001413;28;20179;-73
2023/12/20 06:43:13;;;;;;;14.93;9.60;;;7.00;99.90;;;;;;5002591;28;20187;-73
2023/12/20 06:45:39;;;;;;;16.60;8.13;;;6.90;99.90;;;;;;4997467;28;20219;-73
2023/12/20 06:48:05;;;;;;;31.57;9.73;;;7.00;99.90;;;;;;4995633;28;20427;-72
2023/12/20 06:50:30;;;;;;;19.87;8.43;;;6.90;99.90;;;;;;4988203;28;20191;-72
2023/12/20 06:52:56;;;;;;;16.20;7.90;;;6.90;99.90;;;;;;4989515;28;20438;-73
2023/12/20 06:55:22;;;;;;;12.40;8.20;;;6.90;99.90;;;;;;4989444;28;20202;-73
2023/12/20 06:57:47;;;;;;;17.83;8.10;;;6.90;99.90;;;;;;4990153;28;20207;-73
2023/12/20 07:00:13;;;;;;;21.80;8.03;;;6.90;99.90;;;;;;4987399;28;20187;-72
2023/12/20 07:02:39;;;;;;;16.50;8.07;;;6.90;99.90;;;;;;4988003;28;20179;-73
2023/12/20 07:05:06;;;;;;;17.53;9.10;;;6.90;99.90;;;;;;4988313;28;21348;-73
2023/12/20 07:07:31;;;;;;;12.83;9.10;;;6.90;99.90;;;;;;4997968;28;20743;-72
2023/12/20 07:09:57;;;;;;;12.00;8.27;;;6.90;99.90;;;;;;4996037;28;20422;-73
2023/12/20 07:12:23;;;;;;;16.53;7.83;;;6.90;99.90;;;;;;4996667;28;20724;-72
2023/12/20 07:14:48;;;;;;;12.70;7.93;;;6.90;99.90;;;;;;4987618;28;20188;-72
2023/12/20 07:17:15;;;;;;;13.40;7.93;;;7.00;99.90;;;;;;4986217;28;20596;-72
2023/12/20 07:19:41;;;;;;;18.90;8.30;;;7.00;99.90;;;;;;4986724;28;20191;-72
2023/12/20 07:22:07;;;;;;;11.37;7.60;;;7.00;99.90;;;;;;4988505;28;20442;-72
2023/12/20 07:24:33;;;;;;;16.40;7.90;;;7.00;99.90;;;;;;4985535;28;20475;-72
2023/12/20 07:27:00;;;;;;;17.00;8.37;;;7.00;99.90;;;;;;4988137;28;20526;-72
2023/12/20 07:29:25;;;;;;;12.67;8.60;;;7.00;99.90;;;;;;4984014;28;20488;-72
2023/12/20 07:31:53;;;;;;;10.60;7.20;;;7.00;99.90;;;;;;4985121;28;21056;-73
2023/12/20 07:34:20;;;;;;;14.50;7.17;;;7.00;99.90;;;;;;4969655;28;20191;-72
2023/12/20 07:36:46;;;;;;;12.90;7.77;;;7.00;99.90;;;;;;5009003;28;20460;-72
2023/12/20 07:39:13;;;;;;;16.50;7.37;;;7.00;99.90;;;;;;4992443;28;21064;-71
2023/12/20 07:41:38;;;;;;;13.50;7.40;;;7.00;99.90;;;;;;4996246;28;20450;-74
2023/12/20 07:44:04;;;;;;;15.17;7.57;;;6.90;99.90;;;;;;4993846;28;20430;-72
2023/12/20 07:46:30;;;;;;;11.37;7.50;;;7.00;99.90;;;;;;4998464;28;20226;-71
2023/12/20 07:48:56;;;;;;;18.70;8.70;;;7.00;99.90;;;;;;4997190;28;20457;-74
2023/12/20 07:51:21;;;;;;;14.87;7.50;;;7.00;99.90;;;;;;4998289;28;20188;-71
2023/12/20 07:53:47;;;;;;;15.20;7.80;;;7.00;99.90;;;;;;5001093;28;20190;-73
2023/12/20 07:56:16;;;;;;;12.67;7.77;;;7.00;99.90;;;;;;4999241;28;20182;-71
2023/12/20 07:58:42;;;;;;;14.33;8.10;;;7.00;99.90;;;;;;5001750;28;20619;-74
2023/12/20 08:01:08;;;;;;;12.90;7.47;;;7.00;99.90;;;;;;4990124;28;21117;-74
2023/12/20 08:03:34;;;;;;;9.83;7.57;;;7.00;99.90;;;;;;5001391;28;20430;-71
2023/12/20 08:06:00;;;;;;;10.90;6.97;;;7.10;99.90;;;;;;4999283;28;20225;-71
2023/12/20 08:08:26;;;;;;;15.00;7.67;;;7.00;99.90;;;;;;5001270;28;20176;-72
2023/12/20 08:10:51;;;;;;;18.10;8.10;;;7.00;99.90;;;;;;4994908;28;20931;-73
2023/12/20 08:13:17;;;;;;;17.07;8.73;;;7.10;99.90;;;;;;4999251;28;20180;-73
2023/12/20 08:15:43;;;;;;;11.83;7.30;;;7.00;99.90;;;;;;5001193;28;20746;-75
2023/12/20 08:18:08;;;;;;;12.77;7.80;;;7.00;99.90;;;;;;5001860;28;20191;-73
2023/12/20 08:20:34;;;;;;;14.23;8.13;;;7.00;99.90;;;;;;4999112;28;20270;-72
2023/12/20 08:23:00;;;;;;;12.10;7.37;;;7.00;99.90;;;;;;4993468;28;20215;-72
2023/12/20 08:25:27;;;;;;;13.43;6.93;;;7.00;99.90;;;;;;4999806;28;20213;-74
2023/12/20 08:27:53;;;;;;;15.50;6.90;;;7.00;99.90;;;;;;4995160;28;20953;-72
2023/12/20 08:30:21;;;;;;;18.40;7.90;;;7.00;99.90;;;;;;4997341;28;20434;-74
2023/12/20 08:32:48;;;;;;;13.80;7.43;;;7.00;99.90;;;;;;4996336;28;20199;-72
2023/12/20 08:35:13;;;;;;;14.97;7.80;;;7.10;99.90;;;;;;4998184;28;20441;-74
2023/12/20 08:37:39;;;;;;;12.53;7.33;;;7.00;99.90;;;;;;5000036;28;20427;-72
2023/12/20 08:40:05;;;;;;;15.30;6.53;;;7.00;99.90;;;;;;4998918;28;20983;-70
2023/12/20 08:42:31;;;;;;;13.53;6.37;;;7.10;99.90;;;;;;5000397;28;20187;-73
2023/12/20 08:45:00;;;;;;;11.50;6.73;;;7.00;99.90;;;;;;4997705;28;21303;-70
2023/12/20 08:47:26;;;;;;;13.33;7.17;;;7.10;99.90;;;;;;5001572;28;20192;-74
2023/12/20 08:49:56;;;;;;;15.03;7.17;;;7.10;99.90;;;;;;4996466;28;21235;-72
2023/12/20 08:52:26;;;;;;;13.50;7.60;;;7.10;99.90;;;;;;4987370;28;20444;-71
2023/12/20 08:54:53;;;;;;;14.87;8.27;;;7.10;99.90;;;;;;4991381;28;20536;-73
2023/12/20 08:57:25;;;;;;;13.63;7.53;;;7.10;99.90;;;;;;4991111;28;20438;-75
2023/12/20 08:59:51;;;;;;;15.63;7.73;;;7.10;99.90;;;;;;4991738;28;20459;-76
2023/12/20 09:02:17;;;;;;;9.90;7.43;;;7.10;99.90;;;;;;4990071;28;20439;-73
2023/12/20 09:04:43;;;;;;;13.67;7.00;;;7.20;99.90;;;;;;4990682;28;21131;-72
2023/12/20 09:07:25;;;;;;;14.63;8.10;;;7.10;99.90;;;;;;4990368;28;21324;-74
2023/12/20 09:09:51;;;;;;;11.00;6.57;;;7.20;99.90;;;;;;4991087;28;20422;-71
2023/12/20 09:12:20;;;;;;;11.63;6.90;;;7.20;99.90;;;;;;4989914;28;20955;-70
2023/12/20 09:14:47;;;;;;;14.17;6.60;;;7.20;99.90;;;;;;4990508;28;20431;-72
2023/12/20 09:17:13;;;;;;;10.03;6.13;;;7.20;99.90;;;;;;4990311;28;20430;-72
2023/12/20 09:19:39;;;;;;;13.70;6.90;;;7.20;99.90;;;;;;4990659;28;20441;-73
2023/12/20 09:22:05;;;;;;;13.30;6.70;;;7.20;99.90;;;;;;4991219;28;20864;-72
2023/12/20 09:24:31;;;;;;;15.50;7.70;;;7.20;99.90;;;;;;4990190;28;20824;-73
2023/12/20 09:26:57;;;;;;;14.03;8.00;;;7.20;99.90;;;;;;4989722;28;20820;-72
2023/12/20 09:29:24;;;;;;;17.13;6.80;;;7.20;99.90;;;;;;4990203;28;20521;-76
2023/12/20 09:31:50;;;;;;;16.27;8.17;;;7.20;99.90;;;;;;4990634;28;20293;-74
2023/12/20 09:34:17;;;;;;;12.67;6.70;;;7.20;99.90;;;;;;4991180;28;20541;-72
2023/12/20 09:36:46;;;;;;;8.37;5.60;;;7.20;99.90;;;;;;4989528;28;20195;-72
2023/12/20 09:39:20;;;;;;;8.60;5.80;;;7.20;99.90;;;;;;4990134;28;20503;-74
2023/12/20 09:42:02;;;;;;;17.00;6.40;;;7.30;99.90;;;;;;4989761;28;20501;-74
2023/12/20 09:44:28;;;;;;;12.10;5.93;;;7.20;99.90;;;;;;4957328;28;20466;-75
2023/12/20 09:46:55;;;;;;;13.23;6.50;;;7.20;99.90;;;;;;4988923;28;20446;-75
2023/12/20 09:49:21;;;;;;;18.37;6.33;;;7.20;99.90;;;;;;4989729;28;20905;-73
2023/12/20 09:51:48;;;;;;;19.23;6.20;;;7.20;99.90;;;;;;4991862;28;20514;-73
2023/12/20 09:54:23;;;;;;;13.50;5.70;;;7.20;99.90;;;;;;4990936;28;20494;-71
2023/12/20 09:56:49;;;;;;;11.07;6.40;;;7.20;99.90;;;;;;4990166;28;20478;-75
2023/12/20 09:59:15;;;;;;;10.40;6.57;;;7.30;99.90;;;;;;4989916;28;20430;-74
2023/12/20 10:01:42;;;;;;;7.63;5.00;;;7.30;99.90;;;;;;4972230;28;20588;-70
2023/12/20 10:04:12;;;;;;;13.30;6.47;;;7.30;99.90;;;;;;4989411;28;20290;-73
2023/12/20 10:06:45;;;;;;;11.70;5.30;;;7.30;99.90;;;;;;4972756;28;20422;-72
2023/12/20 10:09:11;;;;;;;9.60;5.30;;;7.30;99.90;;;;;;4990066;28;20434;-73
2023/12/20 10:11:40;;;;;;;11.30;5.77;;;7.30;99.90;;;;;;4988835;28;20475;-74
2023/12/20 10:14:07;;;;;;;11.40;5.50;;;7.30;99.90;;;;;;4990006;28;20430;-73
2023/12/20 10:16:33;;;;;;;10.43;5.10;;;7.30;99.90;;;;;;4987760;28;20430;-72
2023/12/20 10:19:01;;;;;;;13.33;5.57;;;7.40;99.90;;;;;;4990991;28;20499;-76
2023/12/20 10:21:27;;;;;;;16.07;6.27;;;7.30;99.90;;;;;;4988677;28;20445;-73
2023/12/20 10:23:56;;;;;;;22.03;7.20;;;7.40;99.90;;;;;;4989159;28;20474;-72
2023/12/20 10:26:23;;;;;;;16.00;5.83;;;7.30;99.90;;;;;;4988418;28;21059;-72
2023/12/20 10:28:59;;;;;;;13.07;5.50;;;7.30;99.90;;;;;;4989350;28;20430;-73
2023/12/20 10:31:33;;;;;;;9.50;5.70;;;7.30;99.90;;;;;;4988666;28;20446;-74
2023/12/20 10:34:00;;;;;;;11.87;6.07;;;7.40;99.90;;;;;;4989777;28;20446;-71
2023/12/20 10:36:27;;;;;;;12.60;5.77;;;7.30;99.90;;;;;;4988464;28;20508;-70
2023/12/20 10:38:54;;;;;;;11.87;6.50;;;7.30;99.90;;;;;;4989435;28;20442;-72
2023/12/20 10:41:25;;;;;;;12.10;5.90;;;7.30;99.90;;;;;;4989332;28;20438;-72
2023/12/20 10:43:52;;;;;;;14.83;5.57;;;7.40;99.90;;;;;;4974586;28;20410;-74
2023/12/20 10:46:19;;;;;;;12.47;5.70;;;7.30;99.90;;;;;;4988472;28;20500;-71
2023/12/20 10:48:46;;;;;;;11.20;5.50;;;7.30;99.90;;;;;;4987991;28;20437;-70
2023/12/20 10:51:17;;;;;;;17.20;6.40;;;7.30;99.90;;;;;;4991591;28;20789;-74
2023/12/20 10:53:43;;;;;;;15.27;6.07;;;7.40;99.90;;;;;;4989248;28;20430;-73
2023/12/20 10:56:15;;;;;;;15.23;7.27;;;7.40;99.90;;;;;;4987826;28;20434;-73
2023/12/20 10:58:43;;;;;;;10.60;5.07;;;7.40;99.90;;;;;;4989563;28;20958;-75
2023/12/20 11:01:10;;;;;;;11.93;6.07;;;7.40;99.90;;;;;;4988464;28;20453;-73
2023/12/20 11:03:39;;;;;;;13.20;7.13;;;7.30;99.90;;;;;;4987584;28;21006;-74
2023/12/20 11:06:12;;;;;;;7.57;4.90;;;7.40;99.90;;;;;;4988684;28;20474;-75
2023/12/20 11:08:47;;;;;;;13.87;6.23;;;7.30;99.90;;;;;;4988228;28;20514;-74
2023/12/20 11:11:31;;;;;;;11.43;6.20;;;7.30;99.90;;;;;;4988527;28;20434;-74
2023/12/20 11:14:20;;;;;;;10.90;5.80;;;7.30;99.90;;;;;;4989477;28;20427;-70
2023/12/20 11:16:46;;;;;;;17.33;6.93;;;7.40;99.90;;;;;;4988395;28;20944;-70
2023/12/20 11:19:13;;;;;;;8.67;6.27;;;7.30;99.90;;;;;;4988889;28;20418;-74
2023/12/20 11:21:40;;;;;;;12.50;6.63;;;7.40;99.90;;;;;;4991289;28;20191;-73
2023/12/20 11:24:06;;;;;;;7.27;5.77;;;7.30;99.90;;;;;;4992199;28;20430;-73
2023/12/20 11:26:32;;;;;;;16.07;6.73;;;7.40;99.90;;;;;;4990267;28;20434;-74
2023/12/20 11:29:32;;;;;;;11.13;6.43;;;7.40;99.90;;;;;;4992504;28;20430;-75
2023/12/20 11:32:00;;;;;;;11.33;6.40;;;7.40;99.90;;;;;;4993121;28;20290;-74
2023/12/20 11:34:32;;;;;;;9.13;6.70;;;7.40;99.90;;;;;;4990512;28;20466;-71
2023/12/20 11:37:00;;;;;;;13.43;7.47;;;7.40;99.90;;;;;;4992609;28;20821;-73
2023/12/20 11:39:27;;;;;;;13.57;6.77;;;7.50;99.90;;;;;;4991153;28;20426;-71
2023/12/20 11:41:56;;;;;;;11.67;8.30;;;7.40;99.90;;;;;;4991299;28;20438;-73
2023/12/20 11:44:22;;;;;;;13.20;6.67;;;7.50;99.90;;;;;;4991476;28;20467;-72
2023/12/20 11:46:48;;;;;;;13.10;7.20;;;7.50;99.90;;;;;;4992070;28;20457;-73
2023/12/20 11:49:13;;;;;;;14.90;7.83;;;7.50;99.90;;;;;;4991029;28;20426;-74
2023/12/20 11:51:43;;;;;;;10.87;7.20;;;7.50;99.90;;;;;;4992209;28;20459;-74
2023/12/20 11:54:11;;;;;;;13.07;9.03;;;7.50;99.90;;;;;;4990300;28;20191;-73
2023/12/20 11:56:36;;;;;;;9.73;6.80;;;7.50;99.90;;;;;;4989354;28;20435;-71
2023/12/20 11:59:02;;;;;;;14.00;6.90;;;7.50;99.90;;;;;;4993583;28;20444;-73
2023/12/20 12:01:28;;;;;;;11.63;6.40;;;7.50;99.90;;;;;;4991318;28;20195;-72
2023/12/20 12:04:06;;;;;;;12.70;7.03;;;7.50;99.90;;;;;;5006029;28;20431;-74
2023/12/20 12:06:33;;;;;;;12.17;7.97;;;7.60;99.90;;;;;;4990996;28;20248;-74
2023/12/20 12:08:59;;;;;;;15.77;7.17;;;7.60;99.90;;;;;;4990685;28;20962;-73
2023/12/20 12:11:25;;;;;;;12.20;7.00;;;7.60;99.90;;;;;;4990303;28;20879;-72
2023/12/20 12:13:50;;;;;;;10.50;6.47;;;7.60;99.90;;;;;;4991986;28;20191;-74
2023/12/20 12:16:20;;;;;;;16.40;7.97;;;7.50;99.90;;;;;;4991202;28;20179;-73
2023/12/20 12:18:46;;;;;;;13.50;6.60;;;7.50;99.90;;;;;;4991080;28;20438;-72
2023/12/20 12:21:20;;;;;;;16.00;7.90;;;7.50;99.90;;;;;;4990863;28;20430;-76
2023/12/20 12:23:46;;;;;;;9.87;7.30;;;7.50;99.90;;;;;;4991504;28;20657;-72
2023/12/20 12:26:12;;;;;;;9.30;6.37;;;7.50;99.90;;;;;;4990441;28;20473;-72
2023/12/20 12:28:40;;;;;;;12.13;7.17;;;7.50;99.90;;;;;;4992059;28;20442;-70
2023/12/20 12:31:06;;;;;;;8.83;6.30;;;7.50;99.90;;;;;;4990148;28;20288;-71
2023/12/20 12:33:32;;;;;;;15.37;7.27;;;7.50;99.90;;;;;;4991251;28;20963;-71
2023/12/20 12:35:59;;;;;;;8.60;6.50;;;7.50;99.90;;;;;;4973457;28;20485;-72
2023/12/20 12:38:25;;;;;;;12.70;6.80;;;7.50;99.90;;;;;;4988947;28;20441;-72
2023/12/20 12:40:53;;;;;;;11.73;6.63;;;7.50;99.90;;;;;;4992039;28;20434;-73
2023/12/20 12:43:19;;;;;;;15.43;7.57;;;7.50;99.90;;;;;;4991704;28;20187;-71
2023/12/20 12:45:45;;;;;;;10.00;6.63;;;7.50;99.90;;;;;;4990236;28;20558;-73